Benson Municipal Airport

Current Flights

Departures
Number Departure To Airline
Arrivals
Number Arrival From Airline
Info
Name: Benson Municipal Airport
Identifier:  BBB/KBBB
Local Time:  19. Jun 12:12
City
Flights per Day
0 flights
Distance: 554km (344mi)
Punctuality
66% (0 flights per day delayed)
Delay Average: 15 minutes
Current Weather
 22 C (Humidity: 56%)
  4kt (7km/h / 4mph) from 130°
  Broken clouds at 4,300 feet (1,310 meter)
  16km (10 mi.)
 METAR KBBB 191657Z AUTO 13004KT 10SM BKN043 22/13 A2983 RMK AO2

Current Delays

Departures
N/A
Arrivals
N/A

Destinations

Top Destinations
Airport Flights
per week
Seats
per week
  La Crosse (LSE) 0 - 0 0
  Gladwin (GDW) 0 - 0 0
  Grand Rapids (GRR) 0 - 0 0
  Carroll (CIN) 0 - 0 0

Airlines & Planes

Top Airlines
Airline Flights
per Day
Seats
per Day
Jet Charter Inc ( Franklin Lakes Nj ) 0 -
Top Plane Types
Model Flights Seats
Mooney M20K 0.0/day - 0
Piper PA28-181 0.0/day - 0